createdAt,value
2023-04-18T00:00:10.192Z,15.40
2023-04-18T00:05:19.874Z,15.40
2023-04-18T00:10:21.995Z,15.37
2023-04-18T00:15:24.207Z,15.35
2023-04-18T00:20:26.448Z,15.35
2023-04-18T00:25:28.612Z,15.35
2023-04-18T00:30:30.618Z,15.34
2023-04-18T00:35:32.736Z,15.33
2023-04-18T00:40:34.637Z,15.34
2023-04-18T00:45:37.146Z,15.30
2023-04-18T00:50:40.673Z,15.28
2023-04-18T00:55:44.437Z,15.26
2023-04-18T01:05:18.601Z,15.19
2023-04-18T01:10:20.971Z,15.18
2023-04-18T01:15:25.068Z,15.16
2023-04-18T01:22:23.815Z,15.13
2023-04-18T01:27:26.118Z,15.12
2023-04-18T01:32:28.248Z,15.07
2023-04-18T01:37:31.427Z,15.03
2023-04-18T01:42:35.946Z,15.00
2023-04-18T01:47:38.135Z,14.95
2023-04-18T01:52:44.078Z,14.91
2023-04-18T01:57:47.256Z,14.84
2023-04-18T02:02:50.600Z,14.74
2023-04-18T02:07:56.735Z,14.68
2023-04-18T02:12:58.701Z,14.61
2023-04-18T02:18:01.340Z,14.54
2023-04-18T02:23:04.533Z,14.50
2023-04-18T02:28:06.718Z,14.45
2023-04-18T02:33:09.080Z,14.43
2023-04-18T02:42:23.074Z,14.39
2023-04-18T02:47:25.282Z,14.41
2023-04-18T02:52:27.400Z,14.42
2023-04-18T02:57:29.574Z,14.45
2023-04-18T03:02:59.315Z,14.46
2023-04-18T03:08:10.678Z,14.44
2023-04-18T03:13:13.587Z,14.43
2023-04-18T03:18:15.678Z,14.39
2023-04-18T03:23:18.370Z,14.34
2023-04-18T03:28:21.034Z,14.30
2023-04-18T03:33:24.105Z,14.26
2023-04-18T03:38:33.955Z,14.19
2023-04-18T03:43:36.307Z,14.11
2023-04-18T03:48:38.732Z,14.06
2023-04-18T03:53:46.647Z,14.06
2023-04-18T03:58:48.775Z,14.06
2023-04-18T04:28:01.856Z,14.15
2023-04-18T04:33:09.174Z,14.15
2023-04-18T04:38:12.477Z,14.14
2023-04-18T04:43:20.669Z,14.14
2023-04-18T04:48:24.966Z,14.16
2023-04-18T04:53:32.501Z,14.16
2023-04-18T04:58:37.013Z,14.18
2023-04-18T05:03:59.498Z,14.20
2023-04-18T05:09:01.552Z,14.19
2023-04-18T05:14:03.617Z,14.19
2023-04-18T05:19:05.880Z,14.19
2023-04-18T05:24:08.090Z,14.19
2023-04-18T05:29:10.140Z,14.17
2023-04-18T05:34:12.454Z,14.17
2023-04-18T05:39:14.669Z,14.20
2023-04-18T05:44:17.456Z,14.23
2023-04-18T05:49:19.993Z,14.23
2023-04-18T05:54:22.168Z,14.24
2023-04-18T05:59:24.229Z,14.24
2023-04-18T06:04:26.530Z,14.26
2023-04-18T06:09:28.763Z,14.29
2023-04-18T06:14:30.924Z,14.33
2023-04-18T06:19:32.996Z,14.39
2023-04-18T06:24:35.255Z,14.46
2023-04-18T06:29:38.178Z,14.53
2023-04-18T06:34:40.900Z,14.66
2023-04-18T06:39:43.012Z,14.74
2023-04-18T06:44:44.947Z,14.80
2023-04-18T06:49:47.239Z,14.88
2023-04-18T06:54:49.152Z,14.97
2023-04-18T06:59:51.165Z,15.05
2023-04-18T07:04:53.407Z,15.14
2023-04-18T07:09:55.380Z,15.25
2023-04-18T07:14:57.607Z,15.38
2023-04-18T07:19:59.781Z,15.62
2023-04-18T07:25:01.864Z,16.14
2023-04-18T07:30:04.816Z,16.48
2023-04-18T07:35:07.843Z,16.80
2023-04-18T07:40:10.733Z,16.96
2023-04-18T07:45:12.964Z,17.27
2023-04-18T07:50:15.145Z,17.42
2023-04-18T07:55:17.340Z,17.82
2023-04-18T08:00:19.685Z,18.19
2023-04-18T08:05:21.946Z,18.50
2023-04-18T08:10:24.592Z,18.68
2023-04-18T08:15:31.689Z,18.89
2023-04-18T08:20:35.926Z,18.75
2023-04-18T08:25:38.142Z,18.75
2023-04-18T08:30:40.312Z,18.69
2023-04-18T08:35:44.125Z,18.63
2023-04-18T08:40:46.945Z,18.47
2023-04-18T08:45:49.248Z,18.48
2023-04-18T08:50:57.850Z,18.90
2023-04-18T08:56:01.635Z,18.90
2023-04-18T09:01:04.194Z,19.36
2023-04-18T09:06:08.474Z,19.59
2023-04-18T09:11:29.841Z,19.83
2023-04-18T09:16:46.977Z,19.77
2023-04-18T09:21:58.979Z,19.68
2023-04-18T09:27:01.333Z,19.74
2023-04-18T09:32:03.488Z,19.64
2023-04-18T09:37:14.008Z,19.41
2023-04-18T09:42:16.813Z,19.15
2023-04-18T09:47:18.967Z,19.03
2023-04-18T09:52:23.079Z,18.97
2023-04-18T09:57:30.499Z,18.87
2023-04-18T10:02:40.207Z,19.02
2023-04-18T10:07:45.153Z,18.90
2023-04-18T10:12:52.156Z,18.81
2023-04-18T10:23:38.280Z,19.19
2023-04-18T10:28:57.422Z,19.24
2023-04-18T10:34:05.247Z,19.66
2023-04-18T10:39:22.465Z,19.68
2023-04-18T10:44:25.066Z,19.42
2023-04-18T10:49:31.985Z,19.45
2023-04-18T10:55:07.544Z,19.56
2023-04-18T11:00:13.945Z,19.35
2023-04-18T11:05:20.734Z,19.39
2023-04-18T11:10:27.040Z,19.39
2023-04-18T11:15:30.978Z,19.46
2023-04-18T11:20:41.307Z,19.20
2023-04-18T11:25:45.092Z,19.11
2023-04-18T11:30:47.976Z,19.31
2023-04-18T11:35:50.022Z,19.81
2023-04-18T11:40:52.021Z,19.92
2023-04-18T11:45:59.820Z,19.96
2023-04-18T11:51:02.238Z,20.05
2023-04-18T11:56:05.961Z,20.00
2023-04-18T12:01:22.494Z,19.92
2023-04-18T12:06:24.642Z,19.86
2023-04-18T12:11:32.653Z,19.54
2023-04-18T12:16:35.693Z,19.51
2023-04-18T12:22:01.633Z,19.49
2023-04-18T12:27:03.875Z,19.43
2023-04-18T12:32:06.207Z,19.33
2023-04-18T12:37:09.473Z,19.23
2023-04-18T12:42:11.587Z,19.23
2023-04-18T12:47:13.864Z,19.26
2023-04-18T12:52:16.291Z,19.17
2023-04-18T12:57:18.808Z,19.23
2023-04-18T13:02:21.036Z,19.24
2023-04-18T13:07:23.332Z,19.13
2023-04-18T13:12:25.683Z,19.12
2023-04-18T13:17:27.804Z,19.00
2023-04-18T13:22:31.014Z,18.94
2023-04-18T13:27:33.237Z,18.87
2023-04-18T13:32:36.094Z,18.94
2023-04-18T13:37:38.851Z,18.78
2023-04-18T13:42:41.133Z,18.33
2023-04-18T13:47:44.656Z,18.28
2023-04-18T13:52:48.749Z,18.36
2023-04-18T13:57:51.453Z,18.36
2023-04-18T14:02:53.620Z,18.33
2023-04-18T14:08:02.339Z,18.26
2023-04-18T14:13:04.883Z,18.26
2023-04-18T14:18:07.096Z,18.25
2023-04-18T14:23:09.211Z,18.32
2023-04-18T14:28:17.545Z,18.40
2023-04-18T14:33:19.755Z,18.32
2023-04-18T14:38:22.127Z,18.34
2023-04-18T14:43:24.637Z,18.30
2023-04-18T14:48:27.918Z,18.30
2023-04-18T14:53:30.513Z,18.33
2023-04-18T14:58:32.952Z,18.48
2023-04-18T15:03:35.306Z,18.50
2023-04-18T15:08:37.964Z,18.24
2023-04-18T15:13:40.995Z,18.25
2023-04-18T15:18:43.914Z,18.28
2023-04-18T15:23:49.525Z,18.29
2023-04-18T15:28:54.391Z,18.09
2023-04-18T15:33:56.835Z,17.95
2023-04-18T15:38:58.979Z,17.90
2023-04-18T15:44:01.175Z,18.08
2023-04-18T15:49:03.312Z,17.93
2023-04-18T15:54:05.355Z,17.99
2023-04-18T15:59:08.545Z,17.88
2023-04-18T16:04:10.917Z,17.83
2023-04-18T16:09:13.123Z,17.76
2023-04-18T16:14:15.544Z,17.77
2023-04-18T16:19:17.842Z,17.69
2023-04-18T16:24:19.923Z,17.73
2023-04-18T16:29:22.027Z,17.63
2023-04-18T16:34:24.273Z,17.52
2023-04-18T16:39:28.248Z,17.38
2023-04-18T16:44:30.832Z,17.33
2023-04-18T16:49:32.881Z,17.39
2023-04-18T16:54:35.577Z,17.37
2023-04-18T16:59:37.923Z,17.30
2023-04-18T17:04:40.206Z,17.42
2023-04-18T17:09:42.532Z,17.55
2023-04-18T17:14:44.792Z,17.53
2023-04-18T17:19:47.149Z,17.61
2023-04-18T17:24:49.315Z,17.66
2023-04-18T17:29:51.637Z,17.56
2023-04-18T17:34:53.968Z,17.54
2023-04-18T17:39:57.834Z,17.49
2023-04-18T17:45:02.314Z,17.37
2023-04-18T17:50:05.021Z,17.30
2023-04-18T17:55:07.948Z,17.27
2023-04-18T18:00:12.279Z,17.22
2023-04-18T18:05:14.397Z,17.09
2023-04-18T18:10:24.101Z,17.01
2023-04-18T18:15:26.756Z,16.97
2023-04-18T18:20:29.536Z,16.92
2023-04-18T18:25:31.866Z,16.74
2023-04-18T18:30:34.638Z,16.57
2023-04-18T18:35:36.778Z,16.52
2023-04-18T18:40:38.866Z,16.47
2023-04-18T18:45:41.139Z,16.40
2023-04-18T18:50:43.684Z,16.36
2023-04-18T18:55:45.745Z,16.34
2023-04-18T19:00:48.448Z,16.30
2023-04-18T19:05:52.264Z,16.28
2023-04-18T19:10:54.718Z,16.28
2023-04-18T19:15:57.297Z,16.24
2023-04-18T19:20:59.592Z,16.19
2023-04-18T19:26:01.577Z,16.13
2023-04-18T19:31:03.830Z,16.09
2023-04-18T19:36:06.160Z,16.07
2023-04-18T19:41:08.336Z,16.08
2023-04-18T19:46:10.981Z,16.09
2023-04-18T19:51:12.978Z,16.06
2023-04-18T19:56:15.065Z,16.01
2023-04-18T20:01:19.763Z,16.00
2023-04-18T20:06:22.209Z,16.01
2023-04-18T20:11:24.901Z,16.02
2023-04-18T20:16:27.938Z,16.03
2023-04-18T20:21:30.064Z,16.06
2023-04-18T20:26:32.186Z,16.09
2023-04-18T20:31:35.145Z,16.07
2023-04-18T20:36:41.819Z,16.04
2023-04-18T20:41:46.866Z,16.06
2023-04-18T20:46:48.985Z,16.09
2023-04-18T20:51:51.222Z,16.14
2023-04-18T20:56:53.384Z,16.13
2023-04-18T21:01:55.712Z,16.10
2023-04-18T21:06:58.070Z,16.06
2023-04-18T21:12:00.142Z,16.04
2023-04-18T21:17:02.133Z,16.03
2023-04-18T21:22:04.466Z,16.04
2023-04-18T21:27:07.086Z,16.06
2023-04-18T21:32:09.333Z,16.07
2023-04-18T21:37:11.510Z,16.08
2023-04-18T21:42:13.709Z,16.08
2023-04-18T21:47:16.089Z,16.03
2023-04-18T21:52:18.425Z,16.00
2023-04-18T21:57:20.606Z,15.98
2023-04-18T22:02:22.706Z,15.90
2023-04-18T22:07:25.526Z,15.85
2023-04-18T22:12:27.696Z,15.81
2023-04-18T22:17:30.200Z,15.76
2023-04-18T22:22:32.539Z,15.73
2023-04-18T22:27:34.632Z,15.70
2023-04-18T22:32:36.656Z,15.66
2023-04-18T22:37:38.868Z,15.58
2023-04-18T22:42:40.863Z,15.49
2023-04-18T22:47:43.002Z,15.43
2023-04-18T22:52:45.001Z,15.33
2023-04-18T22:57:49.266Z,15.24
2023-04-18T23:02:52.813Z,15.16
2023-04-18T23:07:56.258Z,15.10
2023-04-18T23:12:59.647Z,15.07
2023-04-18T23:18:07.431Z,15.04
2023-04-18T23:23:09.709Z,15.00
2023-04-18T23:28:14.783Z,14.97
2023-04-18T23:33:17.033Z,14.94
2023-04-18T23:38:19.718Z,14.89
2023-04-18T23:43:22.090Z,14.85
2023-04-18T23:48:24.332Z,14.86
2023-04-18T23:53:26.476Z,14.83
2023-04-18T23:58:28.372Z,14.76
